Weather at Fjällbacka Anra Airport

Public forecast

Using degrees Celsius for public forecast. Weather courtesy of forecast.io.

Closest aviation weather report (METAR) to Fjällbacka Anra Airport

Report is more than 6 hours old.

Closest report is Trollhättan-Vänersborg Airport, 37.4 nm (69.2 km) ESE.

2022/11/14 15:20 (retrieved 2 years ago)

ESGT 141520Z 06005KT 9999 BKN017 08/06 Q1021

Closest aviation forecast (TAF) to Fjällbacka Anra Airport

Forecast is more than 12 hours old.

Closest forecast is Sandefjord Airport, Torp, 46.8 nm (86.6 km) NW.

2023/02/22 18:39 (retrieved 1 year ago)

TAF ENTO 221700Z 2218/2318 16014KT 4000 -RA BR SCT002 OVC008 TEMPO 2218/2221 1200 SNRA BR VV003 TEMPO 2221/2307 1200 RADZ BR OVC002 BECMG 2307/2309 01012KT NSW SCT030